sensor_id;sensor_type;location;lat;lon;timestamp;P1;durP1;ratioP1;P2;durP2;ratioP2
18046;SDS011;9148;51.454;13.862;2023-12-22T00:00:50;4.17;;;2.10;;
18046;SDS011;9148;51.454;13.862;2023-12-22T00:03:16;6.03;;;2.03;;
18046;SDS011;9148;51.454;13.862;2023-12-22T00:05:41;5.60;;;3.23;;
18046;SDS011;9148;51.454;13.862;2023-12-22T00:08:07;7.37;;;2.00;;
18046;SDS011;9148;51.454;13.862;2023-12-22T00:10:33;5.23;;;2.03;;
18046;SDS011;9148;51.454;13.862;2023-12-22T00:12:58;3.47;;;1.57;;
18046;SDS011;9148;51.454;13.862;2023-12-22T00:15:24;9.33;;;1.93;;
18046;SDS011;9148;51.454;13.862;2023-12-22T00:17:50;4.20;;;1.63;;
18046;SDS011;9148;51.454;13.862;2023-12-22T00:20:15;6.57;;;1.93;;
18046;SDS011;9148;51.454;13.862;2023-12-22T00:22:41;5.00;;;1.67;;
18046;SDS011;9148;51.454;13.862;2023-12-22T00:25:07;4.93;;;1.87;;
18046;SDS011;9148;51.454;13.862;2023-12-22T00:27:34;5.90;;;2.30;;
18046;SDS011;9148;51.454;13.862;2023-12-22T00:30:00;2.43;;;1.53;;
18046;SDS011;9148;51.454;13.862;2023-12-22T00:32:25;6.70;;;2.03;;
18046;SDS011;9148;51.454;13.862;2023-12-22T00:34:51;4.43;;;1.87;;
18046;SDS011;9148;51.454;13.862;2023-12-22T00:37:17;2.77;;;1.20;;
18046;SDS011;9148;51.454;13.862;2023-12-22T00:39:43;3.93;;;1.23;;
18046;SDS011;9148;51.454;13.862;2023-12-22T00:42:09;7.00;;;1.80;;
18046;SDS011;9148;51.454;13.862;2023-12-22T00:44:34;2.40;;;1.63;;
18046;SDS011;9148;51.454;13.862;2023-12-22T00:47:00;8.47;;;1.93;;
18046;SDS011;9148;51.454;13.862;2023-12-22T00:49:26;10.77;;;2.17;;
18046;SDS011;9148;51.454;13.862;2023-12-22T00:51:51;5.47;;;1.60;;
18046;SDS011;9148;51.454;13.862;2023-12-22T00:54:17;2.67;;;0.90;;
18046;SDS011;9148;51.454;13.862;2023-12-22T00:56:43;2.80;;;1.00;;
18046;SDS011;9148;51.454;13.862;2023-12-22T00:59:08;4.90;;;1.93;;
18046;SDS011;9148;51.454;13.862;2023-12-22T01:01:34;3.90;;;1.47;;
18046;SDS011;9148;51.454;13.862;2023-12-22T01:04:00;1.67;;;1.00;;
18046;SDS011;9148;51.454;13.862;2023-12-22T01:06:25;1.10;;;0.93;;
18046;SDS011;9148;51.454;13.862;2023-12-22T01:08:51;4.23;;;1.57;;
18046;SDS011;9148;51.454;13.862;2023-12-22T01:11:17;4.43;;;1.53;;
18046;SDS011;9148;51.454;13.862;2023-12-22T01:13:43;3.30;;;0.90;;
18046;SDS011;9148;51.454;13.862;2023-12-22T01:16:09;2.43;;;1.27;;
18046;SDS011;9148;51.454;13.862;2023-12-22T01:18:35;8.43;;;1.83;;
18046;SDS011;9148;51.454;13.862;2023-12-22T01:21:00;10.03;;;1.30;;
18046;SDS011;9148;51.454;13.862;2023-12-22T01:23:26;2.00;;;1.00;;
18046;SDS011;9148;51.454;13.862;2023-12-22T01:25:52;15.23;;;1.33;;
18046;SDS011;9148;51.454;13.862;2023-12-22T01:28:17;4.93;;;1.60;;
18046;SDS011;9148;51.454;13.862;2023-12-22T01:30:43;1.77;;;1.00;;
18046;SDS011;9148;51.454;13.862;2023-12-22T01:33:09;1.47;;;1.10;;
18046;SDS011;9148;51.454;13.862;2023-12-22T01:35:34;2.63;;;1.53;;
18046;SDS011;9148;51.454;13.862;2023-12-22T01:38:00;4.47;;;1.60;;
18046;SDS011;9148;51.454;13.862;2023-12-22T01:40:26;1.10;;;0.60;;
18046;SDS011;9148;51.454;13.862;2023-12-22T01:42:51;3.77;;;1.70;;
18046;SDS011;9148;51.454;13.862;2023-12-22T01:45:17;2.07;;;1.07;;
18046;SDS011;9148;51.454;13.862;2023-12-22T01:47:43;2.63;;;1.43;;
18046;SDS011;9148;51.454;13.862;2023-12-22T01:50:10;4.80;;;1.40;;
18046;SDS011;9148;51.454;13.862;2023-12-22T01:52:37;1.13;;;1.00;;
18046;SDS011;9148;51.454;13.862;2023-12-22T01:55:05;1.53;;;0.93;;
18046;SDS011;9148;51.454;13.862;2023-12-22T01:57:31;3.33;;;1.80;;
18046;SDS011;9148;51.454;13.862;2023-12-22T01:59:59;2.97;;;1.60;;
18046;SDS011;9148;51.454;13.862;2023-12-22T02:02:25;1.90;;;1.03;;
18046;SDS011;9148;51.454;13.862;2023-12-22T02:04:52;6.30;;;1.03;;
18046;SDS011;9148;51.454;13.862;2023-12-22T02:07:18;2.80;;;1.03;;
18046;SDS011;9148;51.454;13.862;2023-12-22T02:09:44;2.73;;;1.43;;
18046;SDS011;9148;51.454;13.862;2023-12-22T02:12:10;3.23;;;1.47;;
18046;SDS011;9148;51.454;13.862;2023-12-22T02:14:35;4.80;;;1.67;;
18046;SDS011;9148;51.454;13.862;2023-12-22T02:17:02;5.43;;;1.77;;
18046;SDS011;9148;51.454;13.862;2023-12-22T02:19:47;6.03;;;1.87;;
18046;SDS011;9148;51.454;13.862;2023-12-22T02:22:13;5.37;;;1.10;;
18046;SDS011;9148;51.454;13.862;2023-12-22T02:24:39;5.53;;;1.40;;
18046;SDS011;9148;51.454;13.862;2023-12-22T02:27:10;3.53;;;1.57;;
18046;SDS011;9148;51.454;13.862;2023-12-22T02:32:40;4.47;;;1.30;;
18046;SDS011;9148;51.454;13.862;2023-12-22T02:35:09;2.70;;;1.27;;
18046;SDS011;9148;51.454;13.862;2023-12-22T02:37:43;1.70;;;0.83;;
18046;SDS011;9148;51.454;13.862;2023-12-22T02:40:12;3.70;;;1.03;;
18046;SDS011;9148;51.454;13.862;2023-12-22T02:42:39;5.80;;;1.10;;
18046;SDS011;9148;51.454;13.862;2023-12-22T02:45:05;3.20;;;1.10;;
18046;SDS011;9148;51.454;13.862;2023-12-22T02:47:31;1.80;;;1.23;;
18046;SDS011;9148;51.454;13.862;2023-12-22T02:49:58;4.20;;;1.43;;
18046;SDS011;9148;51.454;13.862;2023-12-22T02:52:24;6.90;;;1.43;;
18046;SDS011;9148;51.454;13.862;2023-12-22T02:54:50;4.47;;;1.33;;
18046;SDS011;9148;51.454;13.862;2023-12-22T02:57:15;3.33;;;1.50;;
18046;SDS011;9148;51.454;13.862;2023-12-22T02:59:41;5.37;;;1.30;;
18046;SDS011;9148;51.454;13.862;2023-12-22T03:02:07;8.00;;;2.73;;
18046;SDS011;9148;51.454;13.862;2023-12-22T03:04:32;5.23;;;1.70;;
18046;SDS011;9148;51.454;13.862;2023-12-22T03:06:58;2.37;;;1.47;;
18046;SDS011;9148;51.454;13.862;2023-12-22T03:09:24;1.40;;;1.03;;
18046;SDS011;9148;51.454;13.862;2023-12-22T03:11:49;6.73;;;2.10;;
18046;SDS011;9148;51.454;13.862;2023-12-22T03:14:19;2.53;;;1.40;;
18046;SDS011;9148;51.454;13.862;2023-12-22T03:16:45;9.10;;;1.87;;
18046;SDS011;9148;51.454;13.862;2023-12-22T03:19:10;2.30;;;1.30;;
18046;SDS011;9148;51.454;13.862;2023-12-22T03:21:36;8.90;;;2.13;;
18046;SDS011;9148;51.454;13.862;2023-12-22T03:24:02;7.60;;;1.70;;
18046;SDS011;9148;51.454;13.862;2023-12-22T03:26:28;2.13;;;1.33;;
18046;SDS011;9148;51.454;13.862;2023-12-22T03:28:53;3.80;;;2.37;;
18046;SDS011;9148;51.454;13.862;2023-12-22T03:31:19;1.83;;;1.47;;
18046;SDS011;9148;51.454;13.862;2023-12-22T03:33:45;3.67;;;1.37;;
18046;SDS011;9148;51.454;13.862;2023-12-22T03:36:10;2.10;;;1.53;;
18046;SDS011;9148;51.454;13.862;2023-12-22T03:38:36;2.97;;;1.40;;
18046;SDS011;9148;51.454;13.862;2023-12-22T03:41:02;7.27;;;2.50;;
18046;SDS011;9148;51.454;13.862;2023-12-22T03:43:28;7.40;;;1.63;;
18046;SDS011;9148;51.454;13.862;2023-12-22T03:45:56;4.43;;;1.50;;
18046;SDS011;9148;51.454;13.862;2023-12-22T03:48:22;4.30;;;1.70;;
18046;SDS011;9148;51.454;13.862;2023-12-22T03:50:47;1.93;;;1.10;;
18046;SDS011;9148;51.454;13.862;2023-12-22T03:53:13;2.40;;;1.00;;
18046;SDS011;9148;51.454;13.862;2023-12-22T03:55:39;1.80;;;1.13;;
18046;SDS011;9148;51.454;13.862;2023-12-22T03:58:04;9.10;;;2.07;;
18046;SDS011;9148;51.454;13.862;2023-12-22T04:00:32;8.10;;;1.27;;
18046;SDS011;9148;51.454;13.862;2023-12-22T04:02:58;1.17;;;1.00;;
18046;SDS011;9148;51.454;13.862;2023-12-22T04:05:24;5.27;;;1.77;;
18046;SDS011;9148;51.454;13.862;2023-12-22T04:07:49;5.50;;;1.50;;
18046;SDS011;9148;51.454;13.862;2023-12-22T04:10:18;4.03;;;0.80;;
18046;SDS011;9148;51.454;13.862;2023-12-22T04:12:44;1.43;;;0.83;;
18046;SDS011;9148;51.454;13.862;2023-12-22T04:15:10;1.90;;;1.03;;
18046;SDS011;9148;51.454;13.862;2023-12-22T04:17:35;4.83;;;1.20;;
18046;SDS011;9148;51.454;13.862;2023-12-22T04:20:01;3.17;;;1.03;;
18046;SDS011;9148;51.454;13.862;2023-12-22T04:22:27;1.40;;;0.70;;
18046;SDS011;9148;51.454;13.862;2023-12-22T04:24:53;0.87;;;0.60;;
18046;SDS011;9148;51.454;13.862;2023-12-22T04:27:19;4.20;;;1.37;;
18046;SDS011;9148;51.454;13.862;2023-12-22T04:29:44;1.37;;;0.90;;
18046;SDS011;9148;51.454;13.862;2023-12-22T04:32:10;0.70;;;0.63;;
18046;SDS011;9148;51.454;13.862;2023-12-22T04:34:35;1.20;;;1.03;;
18046;SDS011;9148;51.454;13.862;2023-12-22T04:37:01;1.70;;;1.03;;
18046;SDS011;9148;51.454;13.862;2023-12-22T04:39:27;5.53;;;0.90;;
18046;SDS011;9148;51.454;13.862;2023-12-22T04:41:53;1.93;;;1.07;;
18046;SDS011;9148;51.454;13.862;2023-12-22T04:44:18;4.37;;;1.37;;
18046;SDS011;9148;51.454;13.862;2023-12-22T04:46:44;1.73;;;0.93;;
18046;SDS011;9148;51.454;13.862;2023-12-22T04:49:09;1.73;;;1.00;;
18046;SDS011;9148;51.454;13.862;2023-12-22T04:51:35;3.23;;;0.80;;
18046;SDS011;9148;51.454;13.862;2023-12-22T04:54:01;4.53;;;0.83;;
18046;SDS011;9148;51.454;13.862;2023-12-22T04:56:27;3.13;;;0.80;;
18046;SDS011;9148;51.454;13.862;2023-12-22T04:58:52;1.13;;;1.03;;
18046;SDS011;9148;51.454;13.862;2023-12-22T05:01:18;2.90;;;1.77;;
18046;SDS011;9148;51.454;13.862;2023-12-22T05:03:44;4.30;;;2.10;;
18046;SDS011;9148;51.454;13.862;2023-12-22T05:06:10;2.30;;;1.03;;
18046;SDS011;9148;51.454;13.862;2023-12-22T05:08:35;1.20;;;1.07;;
18046;SDS011;9148;51.454;13.862;2023-12-22T05:11:01;2.97;;;1.33;;
18046;SDS011;9148;51.454;13.862;2023-12-22T05:13:27;8.00;;;1.70;;
18046;SDS011;9148;51.454;13.862;2023-12-22T05:15:52;3.63;;;1.23;;
18046;SDS011;9148;51.454;13.862;2023-12-22T05:18:18;1.93;;;1.40;;
18046;SDS011;9148;51.454;13.862;2023-12-22T05:20:44;8.07;;;1.70;;
18046;SDS011;9148;51.454;13.862;2023-12-22T05:23:10;9.07;;;1.60;;
18046;SDS011;9148;51.454;13.862;2023-12-22T05:25:38;3.77;;;1.57;;
18046;SDS011;9148;51.454;13.862;2023-12-22T05:28:05;1.40;;;1.27;;
18046;SDS011;9148;51.454;13.862;2023-12-22T05:30:31;1.90;;;1.77;;
18046;SDS011;9148;51.454;13.862;2023-12-22T05:32:56;2.30;;;1.17;;
18046;SDS011;9148;51.454;13.862;2023-12-22T05:35:22;1.80;;;0.67;;
18046;SDS011;9148;51.454;13.862;2023-12-22T05:37:48;3.77;;;1.40;;
18046;SDS011;9148;51.454;13.862;2023-12-22T05:40:13;2.50;;;1.10;;
18046;SDS011;9148;51.454;13.862;2023-12-22T05:42:39;2.13;;;1.07;;
18046;SDS011;9148;51.454;13.862;2023-12-22T05:45:05;2.17;;;1.53;;
18046;SDS011;9148;51.454;13.862;2023-12-22T05:47:32;3.37;;;1.30;;
18046;SDS011;9148;51.454;13.862;2023-12-22T05:49:58;1.10;;;0.87;;
18046;SDS011;9148;51.454;13.862;2023-12-22T05:52:24;3.67;;;1.80;;
18046;SDS011;9148;51.454;13.862;2023-12-22T05:54:50;1.97;;;0.90;;
18046;SDS011;9148;51.454;13.862;2023-12-22T05:57:15;2.77;;;1.10;;
18046;SDS011;9148;51.454;13.862;2023-12-22T05:59:42;0.60;;;0.60;;
18046;SDS011;9148;51.454;13.862;2023-12-22T06:02:07;4.77;;;1.10;;
18046;SDS011;9148;51.454;13.862;2023-12-22T06:04:33;1.77;;;0.53;;
18046;SDS011;9148;51.454;13.862;2023-12-22T06:06:59;2.70;;;0.90;;
18046;SDS011;9148;51.454;13.862;2023-12-22T06:09:25;1.63;;;1.27;;
18046;SDS011;9148;51.454;13.862;2023-12-22T06:11:51;1.47;;;0.50;;
18046;SDS011;9148;51.454;13.862;2023-12-22T06:14:17;1.60;;;0.77;;
18046;SDS011;9148;51.454;13.862;2023-12-22T06:16:42;0.53;;;0.53;;
18046;SDS011;9148;51.454;13.862;2023-12-22T06:19:08;0.70;;;0.70;;
18046;SDS011;9148;51.454;13.862;2023-12-22T06:21:37;8.53;;;1.33;;
18046;SDS011;9148;51.454;13.862;2023-12-22T06:24:03;2.90;;;0.77;;
18046;SDS011;9148;51.454;13.862;2023-12-22T06:26:29;0.70;;;0.57;;
18046;SDS011;9148;51.454;13.862;2023-12-22T06:28:55;6.83;;;1.20;;
18046;SDS011;9148;51.454;13.862;2023-12-22T06:31:21;3.77;;;0.77;;
18046;SDS011;9148;51.454;13.862;2023-12-22T06:33:47;6.30;;;0.80;;
18046;SDS011;9148;51.454;13.862;2023-12-22T06:36:18;1.97;;;1.47;;
18046;SDS011;9148;51.454;13.862;2023-12-22T06:38:48;6.33;;;0.93;;
18046;SDS011;9148;51.454;13.862;2023-12-22T06:43:47;2.90;;;0.40;;
18046;SDS011;9148;51.454;13.862;2023-12-22T06:46:21;1.10;;;0.73;;
18046;SDS011;9148;51.454;13.862;2023-12-22T06:48:48;1.83;;;0.80;;
18046;SDS011;9148;51.454;13.862;2023-12-22T06:51:24;6.67;;;1.23;;
18046;SDS011;9148;51.454;13.862;2023-12-22T06:53:52;5.17;;;0.80;;
18046;SDS011;9148;51.454;13.862;2023-12-22T06:56:25;2.37;;;0.67;;
18046;SDS011;9148;51.454;13.862;2023-12-22T06:58:54;2.20;;;0.93;;
18046;SDS011;9148;51.454;13.862;2023-12-22T07:01:26;5.10;;;1.57;;
18046;SDS011;9148;51.454;13.862;2023-12-22T07:03:54;3.33;;;1.03;;
18046;SDS011;9148;51.454;13.862;2023-12-22T07:06:21;0.47;;;0.47;;
18046;SDS011;9148;51.454;13.862;2023-12-22T07:11:36;3.00;;;1.23;;
18046;SDS011;9148;51.454;13.862;2023-12-22T07:14:15;2.23;;;0.87;;
18046;SDS011;9148;51.454;13.862;2023-12-22T07:16:41;2.80;;;1.43;;
18046;SDS011;9148;51.454;13.862;2023-12-22T07:19:10;1.87;;;1.43;;
18046;SDS011;9148;51.454;13.862;2023-12-22T07:21:38;5.10;;;1.27;;
18046;SDS011;9148;51.454;13.862;2023-12-22T07:24:04;4.03;;;1.33;;
18046;SDS011;9148;51.454;13.862;2023-12-22T07:26:31;2.23;;;1.00;;
18046;SDS011;9148;51.454;13.862;2023-12-22T07:28:56;4.80;;;1.07;;
18046;SDS011;9148;51.454;13.862;2023-12-22T07:31:23;3.07;;;1.30;;
18046;SDS011;9148;51.454;13.862;2023-12-22T07:33:49;1.17;;;0.97;;
18046;SDS011;9148;51.454;13.862;2023-12-22T07:36:16;1.27;;;0.90;;
18046;SDS011;9148;51.454;13.862;2023-12-22T07:38:46;3.67;;;1.13;;
18046;SDS011;9148;51.454;13.862;2023-12-22T07:41:11;2.80;;;1.90;;
18046;SDS011;9148;51.454;13.862;2023-12-22T07:43:37;1.27;;;1.10;;
18046;SDS011;9148;51.454;13.862;2023-12-22T07:46:03;1.40;;;0.93;;
18046;SDS011;9148;51.454;13.862;2023-12-22T07:48:29;1.50;;;1.00;;
18046;SDS011;9148;51.454;13.862;2023-12-22T07:50:54;0.93;;;0.70;;
18046;SDS011;9148;51.454;13.862;2023-12-22T07:53:20;2.57;;;0.87;;
18046;SDS011;9148;51.454;13.862;2023-12-22T07:55:46;1.30;;;0.97;;
18046;SDS011;9148;51.454;13.862;2023-12-22T07:58:12;0.90;;;0.60;;
18046;SDS011;9148;51.454;13.862;2023-12-22T08:00:38;1.43;;;0.80;;
18046;SDS011;9148;51.454;13.862;2023-12-22T08:03:05;1.17;;;1.03;;
18046;SDS011;9148;51.454;13.862;2023-12-22T08:05:30;3.67;;;1.20;;
18046;SDS011;9148;51.454;13.862;2023-12-22T08:07:58;1.00;;;0.57;;
18046;SDS011;9148;51.454;13.862;2023-12-22T08:10:23;2.30;;;0.93;;
18046;SDS011;9148;51.454;13.862;2023-12-22T08:12:49;1.23;;;0.50;;
18046;SDS011;9148;51.454;13.862;2023-12-22T08:15:15;0.93;;;0.53;;
18046;SDS011;9148;51.454;13.862;2023-12-22T08:17:47;2.07;;;1.13;;
18046;SDS011;9148;51.454;13.862;2023-12-22T08:20:20;3.20;;;1.03;;
18046;SDS011;9148;51.454;13.862;2023-12-22T08:22:46;0.50;;;0.50;;
18046;SDS011;9148;51.454;13.862;2023-12-22T08:25:13;6.93;;;1.30;;
18046;SDS011;9148;51.454;13.862;2023-12-22T08:27:39;1.73;;;0.60;;
18046;SDS011;9148;51.454;13.862;2023-12-22T08:30:06;1.67;;;0.30;;
18046;SDS011;9148;51.454;13.862;2023-12-22T08:32:32;0.77;;;0.60;;
18046;SDS011;9148;51.454;13.862;2023-12-22T08:34:57;0.30;;;0.30;;
18046;SDS011;9148;51.454;13.862;2023-12-22T08:37:23;0.43;;;0.30;;
18046;SDS011;9148;51.454;13.862;2023-12-22T08:39:49;0.43;;;0.40;;
18046;SDS011;9148;51.454;13.862;2023-12-22T08:42:15;7.53;;;1.47;;
18046;SDS011;9148;51.454;13.862;2023-12-22T08:44:44;0.33;;;0.30;;
18046;SDS011;9148;51.454;13.862;2023-12-22T08:47:10;0.30;;;0.20;;
18046;SDS011;9148;51.454;13.862;2023-12-22T08:49:35;1.33;;;0.20;;
18046;SDS011;9148;51.454;13.862;2023-12-22T08:52:02;0.87;;;0.30;;
18046;SDS011;9148;51.454;13.862;2023-12-22T08:54:29;1.17;;;0.53;;
18046;SDS011;9148;51.454;13.862;2023-12-22T08:56:55;0.30;;;0.20;;
18046;SDS011;9148;51.454;13.862;2023-12-22T08:59:21;1.87;;;0.60;;
18046;SDS011;9148;51.454;13.862;2023-12-22T09:01:47;0.10;;;0.10;;
18046;SDS011;9148;51.454;13.862;2023-12-22T09:04:18;0.20;;;0.10;;
18046;SDS011;9148;51.454;13.862;2023-12-22T09:06:47;0.30;;;0.30;;
18046;SDS011;9148;51.454;13.862;2023-12-22T09:09:16;0.23;;;0.23;;
18046;SDS011;9148;51.454;13.862;2023-12-22T09:11:42;0.60;;;0.30;;
18046;SDS011;9148;51.454;13.862;2023-12-22T09:14:07;0.70;;;0.60;;
18046;SDS011;9148;51.454;13.862;2023-12-22T09:16:37;2.93;;;0.60;;
18046;SDS011;9148;51.454;13.862;2023-12-22T09:19:03;0.93;;;0.40;;
18046;SDS011;9148;51.454;13.862;2023-12-22T09:21:29;0.50;;;0.43;;
18046;SDS011;9148;51.454;13.862;2023-12-22T09:23:55;0.77;;;0.67;;
18046;SDS011;9148;51.454;13.862;2023-12-22T09:26:21;1.67;;;0.80;;
18046;SDS011;9148;51.454;13.862;2023-12-22T09:28:47;0.57;;;0.50;;
18046;SDS011;9148;51.454;13.862;2023-12-22T09:31:13;0.33;;;0.33;;
18046;SDS011;9148;51.454;13.862;2023-12-22T09:33:39;0.30;;;0.30;;
18046;SDS011;9148;51.454;13.862;2023-12-22T09:36:06;0.47;;;0.40;;
18046;SDS011;9148;51.454;13.862;2023-12-22T09:38:32;1.03;;;0.77;;
18046;SDS011;9148;51.454;13.862;2023-12-22T09:40:58;2.03;;;0.43;;
18046;SDS011;9148;51.454;13.862;2023-12-22T09:43:25;2.10;;;1.10;;
18046;SDS011;9148;51.454;13.862;2023-12-22T09:45:51;0.87;;;0.60;;
18046;SDS011;9148;51.454;13.862;2023-12-22T09:48:18;7.57;;;0.83;;
18046;SDS011;9148;51.454;13.862;2023-12-22T09:50:51;0.80;;;0.63;;
18046;SDS011;9148;51.454;13.862;2023-12-22T09:53:20;0.97;;;0.63;;
18046;SDS011;9148;51.454;13.862;2023-12-22T09:55:46;1.13;;;0.83;;
18046;SDS011;9148;51.454;13.862;2023-12-22T09:58:14;10.67;;;1.20;;
18046;SDS011;9148;51.454;13.862;2023-12-22T10:00:43;2.60;;;1.10;;
18046;SDS011;9148;51.454;13.862;2023-12-22T10:03:09;3.47;;;0.80;;
18046;SDS011;9148;51.454;13.862;2023-12-22T10:05:38;2.33;;;0.80;;
18046;SDS011;9148;51.454;13.862;2023-12-22T10:08:08;1.63;;;1.30;;
18046;SDS011;9148;51.454;13.862;2023-12-22T10:10:38;2.93;;;0.90;;
18046;SDS011;9148;51.454;13.862;2023-12-22T10:13:10;1.60;;;0.40;;
18046;SDS011;9148;51.454;13.862;2023-12-22T10:15:40;1.87;;;0.50;;
18046;SDS011;9148;51.454;13.862;2023-12-22T10:18:06;0.60;;;0.60;;
18046;SDS011;9148;51.454;13.862;2023-12-22T10:20:33;2.00;;;0.63;;
18046;SDS011;9148;51.454;13.862;2023-12-22T10:23:00;1.13;;;0.50;;
18046;SDS011;9148;51.454;13.862;2023-12-22T10:25:29;0.80;;;0.33;;
18046;SDS011;9148;51.454;13.862;2023-12-22T10:27:56;1.37;;;0.73;;
18046;SDS011;9148;51.454;13.862;2023-12-22T10:30:22;1.30;;;0.43;;
18046;SDS011;9148;51.454;13.862;2023-12-22T10:32:52;1.60;;;0.53;;
18046;SDS011;9148;51.454;13.862;2023-12-22T10:35:21;0.90;;;0.40;;
18046;SDS011;9148;51.454;13.862;2023-12-22T10:37:48;2.33;;;0.63;;
18046;SDS011;9148;51.454;13.862;2023-12-22T10:40:18;1.50;;;0.73;;
18046;SDS011;9148;51.454;13.862;2023-12-22T10:42:44;1.93;;;0.53;;
18046;SDS011;9148;51.454;13.862;2023-12-22T10:45:10;2.97;;;0.80;;
18046;SDS011;9148;51.454;13.862;2023-12-22T10:47:37;0.20;;;0.20;;
18046;SDS011;9148;51.454;13.862;2023-12-22T10:50:05;0.57;;;0.40;;
18046;SDS011;9148;51.454;13.862;2023-12-22T10:52:31;1.80;;;0.63;;
18046;SDS011;9148;51.454;13.862;2023-12-22T10:54:57;1.10;;;0.70;;
18046;SDS011;9148;51.454;13.862;2023-12-22T10:57:24;3.27;;;0.83;;
18046;SDS011;9148;51.454;13.862;2023-12-22T10:59:49;2.13;;;1.13;;
18046;SDS011;9148;51.454;13.862;2023-12-22T11:02:17;1.80;;;0.73;;
18046;SDS011;9148;51.454;13.862;2023-12-22T11:07:26;0.73;;;0.30;;
18046;SDS011;9148;51.454;13.862;2023-12-22T11:09:55;4.17;;;0.73;;
18046;SDS011;9148;51.454;13.862;2023-12-22T11:12:29;2.17;;;0.90;;
18046;SDS011;9148;51.454;13.862;2023-12-22T11:15:01;0.77;;;0.57;;
18046;SDS011;9148;51.454;13.862;2023-12-22T11:17:30;0.73;;;0.40;;
18046;SDS011;9148;51.454;13.862;2023-12-22T11:19:59;0.97;;;0.20;;
18046;SDS011;9148;51.454;13.862;2023-12-22T11:22:25;5.10;;;1.03;;
18046;SDS011;9148;51.454;13.862;2023-12-22T11:24:51;3.70;;;0.97;;
18046;SDS011;9148;51.454;13.862;2023-12-22T11:27:19;1.10;;;0.50;;
18046;SDS011;9148;51.454;13.862;2023-12-22T11:29:48;2.07;;;1.00;;
18046;SDS011;9148;51.454;13.862;2023-12-22T11:32:15;0.30;;;0.30;;
18046;SDS011;9148;51.454;13.862;2023-12-22T11:34:43;0.50;;;0.30;;
18046;SDS011;9148;51.454;13.862;2023-12-22T11:37:13;0.70;;;0.70;;
18046;SDS011;9148;51.454;13.862;2023-12-22T11:39:40;1.87;;;0.43;;
18046;SDS011;9148;51.454;13.862;2023-12-22T11:42:14;3.43;;;0.20;;
18046;SDS011;9148;51.454;13.862;2023-12-22T11:44:43;1.33;;;0.40;;
18046;SDS011;9148;51.454;13.862;2023-12-22T11:47:10;0.30;;;0.30;;
18046;SDS011;9148;51.454;13.862;2023-12-22T11:49:38;1.67;;;0.30;;
18046;SDS011;9148;51.454;13.862;2023-12-22T11:52:11;0.20;;;0.20;;
18046;SDS011;9148;51.454;13.862;2023-12-22T11:54:50;0.67;;;0.30;;
18046;SDS011;9148;51.454;13.862;2023-12-22T11:59:55;0.10;;;0.10;;
18046;SDS011;9148;51.454;13.862;2023-12-22T12:02:21;0.33;;;0.33;;
18046;SDS011;9148;51.454;13.862;2023-12-22T12:04:50;0.60;;;0.20;;
18046;SDS011;9148;51.454;13.862;2023-12-22T12:10:59;0.77;;;0.33;;
18046;SDS011;9148;51.454;13.862;2023-12-22T12:13:05;0.93;;;0.50;;
18046;SDS011;9148;51.454;13.862;2023-12-22T12:15:35;1.97;;;0.70;;
18046;SDS011;9148;51.454;13.862;2023-12-22T12:18:02;0.60;;;0.43;;
18046;SDS011;9148;51.454;13.862;2023-12-22T12:20:29;1.80;;;0.70;;
18046;SDS011;9148;51.454;13.862;2023-12-22T12:22:56;5.73;;;0.77;;
18046;SDS011;9148;51.454;13.862;2023-12-22T12:25:22;0.27;;;0.27;;
18046;SDS011;9148;51.454;13.862;2023-12-22T12:27:50;0.93;;;0.50;;
18046;SDS011;9148;51.454;13.862;2023-12-22T12:30:31;0.77;;;0.40;;
18046;SDS011;9148;51.454;13.862;2023-12-22T12:33:10;0.40;;;0.40;;
18046;SDS011;9148;51.454;13.862;2023-12-22T12:35:39;0.73;;;0.33;;
18046;SDS011;9148;51.454;13.862;2023-12-22T12:38:06;0.83;;;0.80;;
18046;SDS011;9148;51.454;13.862;2023-12-22T12:40:33;7.03;;;1.93;;
18046;SDS011;9148;51.454;13.862;2023-12-22T12:43:02;4.67;;;1.10;;
18046;SDS011;9148;51.454;13.862;2023-12-22T12:45:27;0.40;;;0.40;;
18046;SDS011;9148;51.454;13.862;2023-12-22T12:47:54;0.57;;;0.50;;
18046;SDS011;9148;51.454;13.862;2023-12-22T12:50:24;6.07;;;0.90;;
18046;SDS011;9148;51.454;13.862;2023-12-22T12:52:52;4.70;;;0.80;;
18046;SDS011;9148;51.454;13.862;2023-12-22T12:55:20;1.03;;;0.53;;
18046;SDS011;9148;51.454;13.862;2023-12-22T12:57:51;1.90;;;0.83;;
18046;SDS011;9148;51.454;13.862;2023-12-22T13:00:24;3.77;;;0.90;;
18046;SDS011;9148;51.454;13.862;2023-12-22T13:05:30;1.40;;;1.27;;
18046;SDS011;9148;51.454;13.862;2023-12-22T13:08:06;2.40;;;1.03;;
18046;SDS011;9148;51.454;13.862;2023-12-22T13:10:36;0.73;;;0.47;;
18046;SDS011;9148;51.454;13.862;2023-12-22T13:13:03;4.00;;;1.23;;
18046;SDS011;9148;51.454;13.862;2023-12-22T13:15:29;1.57;;;1.00;;
18046;SDS011;9148;51.454;13.862;2023-12-22T13:17:55;0.93;;;0.63;;
18046;SDS011;9148;51.454;13.862;2023-12-22T13:20:22;2.47;;;0.83;;
18046;SDS011;9148;51.454;13.862;2023-12-22T13:22:48;1.70;;;1.07;;
18046;SDS011;9148;51.454;13.862;2023-12-22T13:25:14;10.00;;;1.43;;
18046;SDS011;9148;51.454;13.862;2023-12-22T13:27:44;2.20;;;1.00;;
18046;SDS011;9148;51.454;13.862;2023-12-22T13:30:11;1.13;;;0.57;;
18046;SDS011;9148;51.454;13.862;2023-12-22T13:32:37;1.57;;;0.80;;
18046;SDS011;9148;51.454;13.862;2023-12-22T13:35:03;0.60;;;0.60;;
18046;SDS011;9148;51.454;13.862;2023-12-22T13:37:29;0.83;;;0.60;;
18046;SDS011;9148;51.454;13.862;2023-12-22T13:39:56;2.13;;;0.53;;
18046;SDS011;9148;51.454;13.862;2023-12-22T13:42:23;2.27;;;0.73;;
18046;SDS011;9148;51.454;13.862;2023-12-22T13:44:49;16.03;;;0.63;;
18046;SDS011;9148;51.454;13.862;2023-12-22T13:47:17;2.20;;;0.40;;
18046;SDS011;9148;51.454;13.862;2023-12-22T13:49:44;0.63;;;0.40;;
18046;SDS011;9148;51.454;13.862;2023-12-22T13:52:29;0.73;;;0.50;;
18046;SDS011;9148;51.454;13.862;2023-12-22T13:55:00;0.37;;;0.30;;
18046;SDS011;9148;51.454;13.862;2023-12-22T13:57:27;1.43;;;0.53;;
18046;SDS011;9148;51.454;13.862;2023-12-22T13:59:54;0.27;;;0.27;;
18046;SDS011;9148;51.454;13.862;2023-12-22T14:02:20;0.57;;;0.30;;
18046;SDS011;9148;51.454;13.862;2023-12-22T14:04:53;2.13;;;0.50;;
18046;SDS011;9148;51.454;13.862;2023-12-22T14:07:19;0.60;;;0.50;;
18046;SDS011;9148;51.454;13.862;2023-12-22T14:09:44;0.53;;;0.53;;
18046;SDS011;9148;51.454;13.862;2023-12-22T14:12:10;0.33;;;0.30;;
18046;SDS011;9148;51.454;13.862;2023-12-22T14:14:36;0.37;;;0.27;;
18046;SDS011;9148;51.454;13.862;2023-12-22T14:17:01;0.67;;;0.30;;
18046;SDS011;9148;51.454;13.862;2023-12-22T14:19:27;0.20;;;0.20;;
18046;SDS011;9148;51.454;13.862;2023-12-22T14:21:53;0.50;;;0.40;;
18046;SDS011;9148;51.454;13.862;2023-12-22T14:24:21;1.80;;;0.90;;
18046;SDS011;9148;51.454;13.862;2023-12-22T14:26:56;3.30;;;0.50;;
18046;SDS011;9148;51.454;13.862;2023-12-22T14:29:22;0.83;;;0.77;;
18046;SDS011;9148;51.454;13.862;2023-12-22T14:31:51;0.23;;;0.23;;
18046;SDS011;9148;51.454;13.862;2023-12-22T14:34:17;0.60;;;0.50;;
18046;SDS011;9148;51.454;13.862;2023-12-22T14:36:43;1.13;;;0.30;;
18046;SDS011;9148;51.454;13.862;2023-12-22T14:39:10;0.70;;;0.40;;
18046;SDS011;9148;51.454;13.862;2023-12-22T14:41:38;0.70;;;0.63;;
18046;SDS011;9148;51.454;13.862;2023-12-22T14:44:06;0.47;;;0.10;;
18046;SDS011;9148;51.454;13.862;2023-12-22T14:46:31;0.47;;;0.20;;
18046;SDS011;9148;51.454;13.862;2023-12-22T14:48:57;0.50;;;0.50;;
18046;SDS011;9148;51.454;13.862;2023-12-22T14:51:23;0.20;;;0.20;;
18046;SDS011;9148;51.454;13.862;2023-12-22T14:53:48;0.10;;;0.10;;
18046;SDS011;9148;51.454;13.862;2023-12-22T14:56:14;0.50;;;0.50;;
18046;SDS011;9148;51.454;13.862;2023-12-22T14:58:40;0.93;;;0.40;;
18046;SDS011;9148;51.454;13.862;2023-12-22T15:01:05;0.33;;;0.30;;
18046;SDS011;9148;51.454;13.862;2023-12-22T15:03:31;1.50;;;0.80;;
18046;SDS011;9148;51.454;13.862;2023-12-22T15:05:56;0.87;;;0.60;;